sensor_id;sensor_type;location;lat;lon;timestamp;P1;durP1;ratioP1;P2;durP2;ratioP2
17347;SDS011;8791;50.876;4.342;2022-12-10T00:01:12;73.97;;;24.90;;
17347;SDS011;8791;50.876;4.342;2022-12-10T00:03:40;73.97;;;25.50;;
17347;SDS011;8791;50.876;4.342;2022-12-10T00:06:08;68.67;;;25.00;;
17347;SDS011;8791;50.876;4.342;2022-12-10T00:08:37;71.73;;;25.83;;
17347;SDS011;8791;50.876;4.342;2022-12-10T00:11:06;75.57;;;25.50;;
17347;SDS011;8791;50.876;4.342;2022-12-10T00:13:35;74.37;;;25.80;;
17347;SDS011;8791;50.876;4.342;2022-12-10T00:16:02;72.77;;;25.47;;
17347;SDS011;8791;50.876;4.342;2022-12-10T00:18:30;77.03;;;26.23;;
17347;SDS011;8791;50.876;4.342;2022-12-10T00:20:58;71.87;;;24.90;;
17347;SDS011;8791;50.876;4.342;2022-12-10T00:23:27;71.43;;;25.87;;
17347;SDS011;8791;50.876;4.342;2022-12-10T00:26:00;71.43;;;25.70;;
17347;SDS011;8791;50.876;4.342;2022-12-10T00:28:29;67.50;;;25.00;;
17347;SDS011;8791;50.876;4.342;2022-12-10T00:31:01;66.17;;;25.50;;
17347;SDS011;8791;50.876;4.342;2022-12-10T00:33:29;63.13;;;22.83;;
17347;SDS011;8791;50.876;4.342;2022-12-10T00:35:58;63.73;;;23.83;;
17347;SDS011;8791;50.876;4.342;2022-12-10T00:38:28;70.23;;;26.23;;
17347;SDS011;8791;50.876;4.342;2022-12-10T00:40:55;72.67;;;25.40;;
17347;SDS011;8791;50.876;4.342;2022-12-10T00:43:21;63.63;;;25.23;;
17347;SDS011;8791;50.876;4.342;2022-12-10T00:45:49;64.77;;;24.93;;
17347;SDS011;8791;50.876;4.342;2022-12-10T00:48:16;74.67;;;25.93;;
17347;SDS011;8791;50.876;4.342;2022-12-10T00:50:43;66.77;;;25.43;;
17347;SDS011;8791;50.876;4.342;2022-12-10T00:53:10;75.57;;;27.43;;
17347;SDS011;8791;50.876;4.342;2022-12-10T00:55:37;67.00;;;24.63;;
17347;SDS011;8791;50.876;4.342;2022-12-10T00:58:03;75.50;;;27.60;;
17347;SDS011;8791;50.876;4.342;2022-12-10T01:00:30;74.27;;;27.03;;
17347;SDS011;8791;50.876;4.342;2022-12-10T01:02:58;73.77;;;27.03;;
17347;SDS011;8791;50.876;4.342;2022-12-10T01:05:25;71.77;;;26.87;;
17347;SDS011;8791;50.876;4.342;2022-12-10T01:07:52;83.60;;;28.73;;
17347;SDS011;8791;50.876;4.342;2022-12-10T01:10:19;74.37;;;26.97;;
17347;SDS011;8791;50.876;4.342;2022-12-10T01:12:45;77.50;;;28.93;;
17347;SDS011;8791;50.876;4.342;2022-12-10T01:15:12;80.47;;;27.27;;
17347;SDS011;8791;50.876;4.342;2022-12-10T01:17:39;70.37;;;27.60;;
17347;SDS011;8791;50.876;4.342;2022-12-10T01:20:08;75.90;;;27.77;;
17347;SDS011;8791;50.876;4.342;2022-12-10T01:22:37;80.77;;;28.90;;
17347;SDS011;8791;50.876;4.342;2022-12-10T01:25:04;74.17;;;28.30;;
17347;SDS011;8791;50.876;4.342;2022-12-10T01:27:31;81.40;;;28.37;;
17347;SDS011;8791;50.876;4.342;2022-12-10T01:29:58;83.10;;;28.00;;
17347;SDS011;8791;50.876;4.342;2022-12-10T01:32:25;78.80;;;29.50;;
17347;SDS011;8791;50.876;4.342;2022-12-10T01:34:51;82.70;;;29.13;;
17347;SDS011;8791;50.876;4.342;2022-12-10T01:37:20;87.53;;;30.77;;
17347;SDS011;8791;50.876;4.342;2022-12-10T01:39:46;85.40;;;28.33;;
17347;SDS011;8791;50.876;4.342;2022-12-10T01:42:13;83.30;;;29.87;;
17347;SDS011;8791;50.876;4.342;2022-12-10T01:44:56;84.10;;;30.90;;
17347;SDS011;8791;50.876;4.342;2022-12-10T01:47:28;87.50;;;32.50;;
17347;SDS011;8791;50.876;4.342;2022-12-10T01:49:55;86.27;;;32.07;;
17347;SDS011;8791;50.876;4.342;2022-12-10T01:52:27;89.73;;;31.37;;
17347;SDS011;8791;50.876;4.342;2022-12-10T01:54:54;84.80;;;30.30;;
17347;SDS011;8791;50.876;4.342;2022-12-10T01:57:22;89.33;;;30.90;;
17347;SDS011;8791;50.876;4.342;2022-12-10T01:59:51;89.20;;;33.17;;
17347;SDS011;8791;50.876;4.342;2022-12-10T02:02:22;83.77;;;30.87;;
17347;SDS011;8791;50.876;4.342;2022-12-10T02:04:57;85.00;;;30.17;;
17347;SDS011;8791;50.876;4.342;2022-12-10T02:07:35;83.83;;;31.23;;
17347;SDS011;8791;50.876;4.342;2022-12-10T02:10:08;80.07;;;29.40;;
17347;SDS011;8791;50.876;4.342;2022-12-10T02:12:46;80.23;;;30.67;;
17347;SDS011;8791;50.876;4.342;2022-12-10T02:15:16;80.67;;;32.10;;
17347;SDS011;8791;50.876;4.342;2022-12-10T02:17:46;79.60;;;30.90;;
17347;SDS011;8791;50.876;4.342;2022-12-10T02:20:16;77.10;;;30.97;;
17347;SDS011;8791;50.876;4.342;2022-12-10T02:22:48;77.27;;;31.20;;
17347;SDS011;8791;50.876;4.342;2022-12-10T02:25:19;76.67;;;30.73;;
17347;SDS011;8791;50.876;4.342;2022-12-10T02:27:50;80.27;;;30.80;;
17347;SDS011;8791;50.876;4.342;2022-12-10T02:30:24;72.37;;;28.30;;
17347;SDS011;8791;50.876;4.342;2022-12-10T02:32:52;78.87;;;30.97;;
17347;SDS011;8791;50.876;4.342;2022-12-10T02:35:21;75.30;;;28.97;;
17347;SDS011;8791;50.876;4.342;2022-12-10T02:37:52;73.93;;;29.40;;
17347;SDS011;8791;50.876;4.342;2022-12-10T02:40:22;78.23;;;29.37;;
17347;SDS011;8791;50.876;4.342;2022-12-10T02:42:53;75.37;;;29.97;;
17347;SDS011;8791;50.876;4.342;2022-12-10T02:45:21;78.30;;;29.40;;
17347;SDS011;8791;50.876;4.342;2022-12-10T02:47:52;79.70;;;30.37;;
17347;SDS011;8791;50.876;4.342;2022-12-10T02:50:23;94.37;;;33.67;;
17347;SDS011;8791;50.876;4.342;2022-12-10T02:52:50;96.17;;;34.13;;
17347;SDS011;8791;50.876;4.342;2022-12-10T02:55:17;88.83;;;32.83;;
17347;SDS011;8791;50.876;4.342;2022-12-10T02:57:47;88.77;;;33.63;;
17347;SDS011;8791;50.876;4.342;2022-12-10T03:00:23;79.83;;;33.57;;
17347;SDS011;8791;50.876;4.342;2022-12-10T03:03:07;89.37;;;32.80;;
17347;SDS011;8791;50.876;4.342;2022-12-10T03:05:43;82.87;;;32.23;;
17347;SDS011;8791;50.876;4.342;2022-12-10T03:08:14;98.57;;;34.70;;
17347;SDS011;8791;50.876;4.342;2022-12-10T03:10:47;94.37;;;34.20;;
17347;SDS011;8791;50.876;4.342;2022-12-10T03:13:19;97.83;;;35.27;;
17347;SDS011;8791;50.876;4.342;2022-12-10T03:15:49;103.43;;;35.57;;
17347;SDS011;8791;50.876;4.342;2022-12-10T03:18:21;95.80;;;34.10;;
17347;SDS011;8791;50.876;4.342;2022-12-10T03:20:51;101.93;;;35.63;;
17347;SDS011;8791;50.876;4.342;2022-12-10T03:23:20;108.53;;;35.57;;
17347;SDS011;8791;50.876;4.342;2022-12-10T03:25:48;98.07;;;34.03;;
17347;SDS011;8791;50.876;4.342;2022-12-10T03:28:16;104.20;;;35.90;;
17347;SDS011;8791;50.876;4.342;2022-12-10T03:30:45;103.27;;;34.30;;
17347;SDS011;8791;50.876;4.342;2022-12-10T03:33:13;105.77;;;32.73;;
17347;SDS011;8791;50.876;4.342;2022-12-10T03:35:42;90.70;;;31.87;;
17347;SDS011;8791;50.876;4.342;2022-12-10T03:38:10;90.37;;;31.90;;
17347;SDS011;8791;50.876;4.342;2022-12-10T03:40:38;110.97;;;33.13;;
17347;SDS011;8791;50.876;4.342;2022-12-10T03:43:05;102.83;;;32.83;;
17347;SDS011;8791;50.876;4.342;2022-12-10T03:45:31;105.43;;;33.37;;
17347;SDS011;8791;50.876;4.342;2022-12-10T03:47:58;118.90;;;34.47;;
17347;SDS011;8791;50.876;4.342;2022-12-10T03:50:25;106.90;;;34.33;;
17347;SDS011;8791;50.876;4.342;2022-12-10T03:52:53;109.10;;;35.17;;
17347;SDS011;8791;50.876;4.342;2022-12-10T03:55:20;117.50;;;36.70;;
17347;SDS011;8791;50.876;4.342;2022-12-10T03:57:47;122.43;;;34.80;;
17347;SDS011;8791;50.876;4.342;2022-12-10T04:00:14;115.83;;;35.23;;
17347;SDS011;8791;50.876;4.342;2022-12-10T04:02:41;122.03;;;35.07;;
17347;SDS011;8791;50.876;4.342;2022-12-10T04:05:08;110.17;;;35.57;;
17347;SDS011;8791;50.876;4.342;2022-12-10T04:07:35;99.20;;;34.40;;
17347;SDS011;8791;50.876;4.342;2022-12-10T04:10:03;109.53;;;32.03;;
17347;SDS011;8791;50.876;4.342;2022-12-10T04:12:31;101.43;;;31.00;;
17347;SDS011;8791;50.876;4.342;2022-12-10T04:14:57;102.93;;;32.60;;
17347;SDS011;8791;50.876;4.342;2022-12-10T04:17:42;106.53;;;33.60;;
17347;SDS011;8791;50.876;4.342;2022-12-10T04:20:09;112.47;;;33.47;;
17347;SDS011;8791;50.876;4.342;2022-12-10T04:22:56;106.53;;;33.07;;
17347;SDS011;8791;50.876;4.342;2022-12-10T04:25:42;109.33;;;33.47;;
17347;SDS011;8791;50.876;4.342;2022-12-10T04:28:26;111.43;;;32.87;;
17347;SDS011;8791;50.876;4.342;2022-12-10T04:30:53;111.87;;;32.77;;
17347;SDS011;8791;50.876;4.342;2022-12-10T04:33:20;105.77;;;32.60;;
17347;SDS011;8791;50.876;4.342;2022-12-10T04:35:47;107.33;;;32.40;;
17347;SDS011;8791;50.876;4.342;2022-12-10T04:38:13;92.93;;;29.17;;
17347;SDS011;8791;50.876;4.342;2022-12-10T04:40:41;97.97;;;30.63;;
17347;SDS011;8791;50.876;4.342;2022-12-10T04:43:08;102.33;;;33.03;;
17347;SDS011;8791;50.876;4.342;2022-12-10T04:45:35;102.80;;;31.10;;
17347;SDS011;8791;50.876;4.342;2022-12-10T04:48:02;109.47;;;32.57;;
17347;SDS011;8791;50.876;4.342;2022-12-10T04:50:29;101.90;;;32.43;;
17347;SDS011;8791;50.876;4.342;2022-12-10T04:52:56;99.90;;;29.93;;
17347;SDS011;8791;50.876;4.342;2022-12-10T04:55:23;103.27;;;31.87;;
17347;SDS011;8791;50.876;4.342;2022-12-10T04:57:51;112.67;;;33.37;;
17347;SDS011;8791;50.876;4.342;2022-12-10T05:00:18;95.47;;;30.23;;
17347;SDS011;8791;50.876;4.342;2022-12-10T05:02:47;116.80;;;33.37;;
17347;SDS011;8791;50.876;4.342;2022-12-10T05:05:14;106.53;;;32.70;;
17347;SDS011;8791;50.876;4.342;2022-12-10T05:07:41;104.77;;;33.50;;
17347;SDS011;8791;50.876;4.342;2022-12-10T05:10:08;105.63;;;32.83;;
17347;SDS011;8791;50.876;4.342;2022-12-10T05:12:35;119.83;;;34.63;;
17347;SDS011;8791;50.876;4.342;2022-12-10T05:15:03;119.80;;;35.47;;
17347;SDS011;8791;50.876;4.342;2022-12-10T05:17:32;119.57;;;34.50;;
17347;SDS011;8791;50.876;4.342;2022-12-10T05:19:59;111.13;;;33.37;;
17347;SDS011;8791;50.876;4.342;2022-12-10T05:22:25;120.23;;;35.00;;
17347;SDS011;8791;50.876;4.342;2022-12-10T05:25:10;115.83;;;33.67;;
17347;SDS011;8791;50.876;4.342;2022-12-10T05:27:36;104.97;;;33.17;;
17347;SDS011;8791;50.876;4.342;2022-12-10T05:30:05;116.83;;;32.40;;
17347;SDS011;8791;50.876;4.342;2022-12-10T05:32:34;112.33;;;32.13;;
17347;SDS011;8791;50.876;4.342;2022-12-10T05:35:01;110.63;;;31.43;;
17347;SDS011;8791;50.876;4.342;2022-12-10T05:37:29;108.07;;;29.10;;
17347;SDS011;8791;50.876;4.342;2022-12-10T05:39:55;91.03;;;28.43;;
17347;SDS011;8791;50.876;4.342;2022-12-10T05:42:22;114.87;;;30.43;;
17347;SDS011;8791;50.876;4.342;2022-12-10T05:44:49;100.90;;;29.80;;
17347;SDS011;8791;50.876;4.342;2022-12-10T05:47:17;95.77;;;28.70;;
17347;SDS011;8791;50.876;4.342;2022-12-10T05:49:44;101.93;;;29.17;;
17347;SDS011;8791;50.876;4.342;2022-12-10T05:52:12;107.43;;;30.67;;
17347;SDS011;8791;50.876;4.342;2022-12-10T05:54:39;105.37;;;30.37;;
17347;SDS011;8791;50.876;4.342;2022-12-10T05:57:05;96.83;;;29.83;;
17347;SDS011;8791;50.876;4.342;2022-12-10T05:59:32;103.93;;;30.47;;
17347;SDS011;8791;50.876;4.342;2022-12-10T06:01:59;101.63;;;30.17;;
17347;SDS011;8791;50.876;4.342;2022-12-10T06:04:27;104.30;;;29.97;;
17347;SDS011;8791;50.876;4.342;2022-12-10T06:06:54;103.13;;;30.27;;
17347;SDS011;8791;50.876;4.342;2022-12-10T06:09:21;112.17;;;31.57;;
17347;SDS011;8791;50.876;4.342;2022-12-10T06:11:47;105.27;;;30.37;;
17347;SDS011;8791;50.876;4.342;2022-12-10T06:14:14;109.97;;;30.80;;
17347;SDS011;8791;50.876;4.342;2022-12-10T06:16:41;102.97;;;29.40;;
17347;SDS011;8791;50.876;4.342;2022-12-10T06:19:08;101.47;;;30.37;;
17347;SDS011;8791;50.876;4.342;2022-12-10T06:21:36;112.43;;;32.03;;
17347;SDS011;8791;50.876;4.342;2022-12-10T06:24:04;117.37;;;31.63;;
17347;SDS011;8791;50.876;4.342;2022-12-10T06:26:31;105.67;;;31.23;;
17347;SDS011;8791;50.876;4.342;2022-12-10T06:28:58;106.90;;;31.10;;
17347;SDS011;8791;50.876;4.342;2022-12-10T06:31:26;118.53;;;31.97;;
17347;SDS011;8791;50.876;4.342;2022-12-10T06:33:53;107.37;;;32.47;;
17347;SDS011;8791;50.876;4.342;2022-12-10T06:36:19;113.20;;;31.57;;
17347;SDS011;8791;50.876;4.342;2022-12-10T06:38:48;113.63;;;30.97;;
17347;SDS011;8791;50.876;4.342;2022-12-10T06:41:15;116.00;;;30.33;;
17347;SDS011;8791;50.876;4.342;2022-12-10T06:43:44;111.20;;;32.10;;
17347;SDS011;8791;50.876;4.342;2022-12-10T06:46:11;115.30;;;30.77;;
17347;SDS011;8791;50.876;4.342;2022-12-10T06:48:39;108.50;;;31.03;;
17347;SDS011;8791;50.876;4.342;2022-12-10T06:51:07;106.73;;;31.80;;
17347;SDS011;8791;50.876;4.342;2022-12-10T06:53:36;106.57;;;29.97;;
17347;SDS011;8791;50.876;4.342;2022-12-10T06:56:05;105.27;;;29.30;;
17347;SDS011;8791;50.876;4.342;2022-12-10T06:58:33;102.23;;;29.77;;
17347;SDS011;8791;50.876;4.342;2022-12-10T07:01:04;114.17;;;29.07;;
17347;SDS011;8791;50.876;4.342;2022-12-10T07:03:31;120.67;;;29.53;;
17347;SDS011;8791;50.876;4.342;2022-12-10T07:05:58;124.43;;;28.67;;
17347;SDS011;8791;50.876;4.342;2022-12-10T07:08:26;103.13;;;27.37;;
17347;SDS011;8791;50.876;4.342;2022-12-10T07:10:53;106.77;;;29.90;;
17347;SDS011;8791;50.876;4.342;2022-12-10T07:13:21;102.60;;;29.60;;
17347;SDS011;8791;50.876;4.342;2022-12-10T07:15:48;113.47;;;30.50;;
17347;SDS011;8791;50.876;4.342;2022-12-10T07:18:15;110.47;;;29.20;;
17347;SDS011;8791;50.876;4.342;2022-12-10T07:20:42;97.07;;;29.43;;
17347;SDS011;8791;50.876;4.342;2022-12-10T07:23:08;107.23;;;27.93;;
17347;SDS011;8791;50.876;4.342;2022-12-10T07:25:35;95.73;;;28.10;;
17347;SDS011;8791;50.876;4.342;2022-12-10T07:28:02;104.13;;;27.77;;
17347;SDS011;8791;50.876;4.342;2022-12-10T07:30:30;103.07;;;27.53;;
17347;SDS011;8791;50.876;4.342;2022-12-10T07:32:58;106.47;;;28.97;;
17347;SDS011;8791;50.876;4.342;2022-12-10T07:35:25;118.53;;;32.27;;
17347;SDS011;8791;50.876;4.342;2022-12-10T07:37:52;122.77;;;30.80;;
17347;SDS011;8791;50.876;4.342;2022-12-10T07:40:18;111.00;;;30.03;;
17347;SDS011;8791;50.876;4.342;2022-12-10T07:42:45;113.50;;;29.77;;
17347;SDS011;8791;50.876;4.342;2022-12-10T07:45:12;124.53;;;32.77;;
17347;SDS011;8791;50.876;4.342;2022-12-10T07:47:40;123.93;;;29.50;;
17347;SDS011;8791;50.876;4.342;2022-12-10T07:50:07;113.13;;;30.80;;
17347;SDS011;8791;50.876;4.342;2022-12-10T07:52:34;95.33;;;25.70;;
17347;SDS011;8791;50.876;4.342;2022-12-10T07:55:01;95.00;;;27.27;;
17347;SDS011;8791;50.876;4.342;2022-12-10T07:57:28;102.23;;;27.10;;
17347;SDS011;8791;50.876;4.342;2022-12-10T07:59:55;102.57;;;29.63;;
17347;SDS011;8791;50.876;4.342;2022-12-10T08:02:23;107.53;;;28.50;;
17347;SDS011;8791;50.876;4.342;2022-12-10T08:04:51;98.87;;;27.67;;
17347;SDS011;8791;50.876;4.342;2022-12-10T08:07:18;138.83;;;30.17;;
17347;SDS011;8791;50.876;4.342;2022-12-10T08:09:44;106.90;;;28.37;;
17347;SDS011;8791;50.876;4.342;2022-12-10T08:12:11;102.47;;;28.07;;
17347;SDS011;8791;50.876;4.342;2022-12-10T08:14:38;98.53;;;28.97;;
17347;SDS011;8791;50.876;4.342;2022-12-10T08:17:05;93.57;;;27.73;;
17347;SDS011;8791;50.876;4.342;2022-12-10T08:19:32;96.97;;;28.63;;
17347;SDS011;8791;50.876;4.342;2022-12-10T08:22:00;104.93;;;28.20;;
17347;SDS011;8791;50.876;4.342;2022-12-10T08:24:27;98.27;;;27.83;;
17347;SDS011;8791;50.876;4.342;2022-12-10T08:26:53;103.90;;;29.17;;
17347;SDS011;8791;50.876;4.342;2022-12-10T08:29:20;103.73;;;26.93;;
17347;SDS011;8791;50.876;4.342;2022-12-10T08:31:47;106.47;;;28.60;;
17347;SDS011;8791;50.876;4.342;2022-12-10T08:34:14;104.60;;;26.07;;
17347;SDS011;8791;50.876;4.342;2022-12-10T08:36:43;95.63;;;28.07;;
17347;SDS011;8791;50.876;4.342;2022-12-10T08:39:11;94.70;;;25.63;;
17347;SDS011;8791;50.876;4.342;2022-12-10T08:41:40;106.87;;;25.03;;
17347;SDS011;8791;50.876;4.342;2022-12-10T08:44:07;112.10;;;26.03;;
17347;SDS011;8791;50.876;4.342;2022-12-10T08:46:34;87.33;;;25.80;;
17347;SDS011;8791;50.876;4.342;2022-12-10T08:49:01;102.63;;;25.43;;
17347;SDS011;8791;50.876;4.342;2022-12-10T08:51:28;90.53;;;25.47;;
17347;SDS011;8791;50.876;4.342;2022-12-10T08:53:55;77.33;;;24.37;;
17347;SDS011;8791;50.876;4.342;2022-12-10T08:56:24;93.30;;;25.47;;
17347;SDS011;8791;50.876;4.342;2022-12-10T08:58:51;82.87;;;25.00;;
17347;SDS011;8791;50.876;4.342;2022-12-10T09:01:18;85.57;;;25.67;;
17347;SDS011;8791;50.876;4.342;2022-12-10T09:03:45;103.40;;;25.80;;
17347;SDS011;8791;50.876;4.342;2022-12-10T09:06:13;93.97;;;26.53;;
17347;SDS011;8791;50.876;4.342;2022-12-10T09:08:42;100.23;;;26.50;;
17347;SDS011;8791;50.876;4.342;2022-12-10T09:11:10;95.83;;;25.33;;
17347;SDS011;8791;50.876;4.342;2022-12-10T09:13:40;87.70;;;23.93;;
17347;SDS011;8791;50.876;4.342;2022-12-10T09:16:07;99.10;;;25.63;;
17347;SDS011;8791;50.876;4.342;2022-12-10T09:18:34;90.17;;;23.80;;
17347;SDS011;8791;50.876;4.342;2022-12-10T09:21:03;87.97;;;23.27;;
17347;SDS011;8791;50.876;4.342;2022-12-10T09:23:31;85.00;;;24.60;;
17347;SDS011;8791;50.876;4.342;2022-12-10T09:25:58;82.83;;;25.40;;
17347;SDS011;8791;50.876;4.342;2022-12-10T09:28:25;90.33;;;24.27;;
17347;SDS011;8791;50.876;4.342;2022-12-10T09:30:57;94.40;;;25.07;;
17347;SDS011;8791;50.876;4.342;2022-12-10T09:33:25;79.53;;;25.37;;
17347;SDS011;8791;50.876;4.342;2022-12-10T09:35:53;96.13;;;25.17;;
17347;SDS011;8791;50.876;4.342;2022-12-10T09:38:20;83.77;;;23.77;;
17347;SDS011;8791;50.876;4.342;2022-12-10T09:40:49;82.53;;;25.40;;
17347;SDS011;8791;50.876;4.342;2022-12-10T09:43:23;80.73;;;25.00;;
17347;SDS011;8791;50.876;4.342;2022-12-10T09:46:02;79.67;;;24.63;;
17347;SDS011;8791;50.876;4.342;2022-12-10T09:48:38;86.97;;;25.23;;
17347;SDS011;8791;50.876;4.342;2022-12-10T09:51:12;94.97;;;27.43;;
17347;SDS011;8791;50.876;4.342;2022-12-10T09:53:46;74.63;;;23.90;;
17347;SDS011;8791;50.876;4.342;2022-12-10T09:56:18;84.80;;;25.50;;
17347;SDS011;8791;50.876;4.342;2022-12-10T09:58:47;90.43;;;26.03;;
17347;SDS011;8791;50.876;4.342;2022-12-10T10:01:17;81.43;;;25.67;;
17347;SDS011;8791;50.876;4.342;2022-12-10T10:03:49;93.27;;;25.70;;
17347;SDS011;8791;50.876;4.342;2022-12-10T10:06:15;87.93;;;25.67;;
17347;SDS011;8791;50.876;4.342;2022-12-10T10:08:44;88.73;;;24.90;;
17347;SDS011;8791;50.876;4.342;2022-12-10T10:11:14;93.37;;;25.73;;
17347;SDS011;8791;50.876;4.342;2022-12-10T10:13:45;93.47;;;25.43;;
17347;SDS011;8791;50.876;4.342;2022-12-10T10:16:19;88.23;;;25.37;;
17347;SDS011;8791;50.876;4.342;2022-12-10T10:18:50;94.30;;;25.73;;
17347;SDS011;8791;50.876;4.342;2022-12-10T10:21:22;94.27;;;25.77;;
17347;SDS011;8791;50.876;4.342;2022-12-10T10:23:51;89.67;;;25.07;;
17347;SDS011;8791;50.876;4.342;2022-12-10T10:26:18;99.13;;;26.53;;
17347;SDS011;8791;50.876;4.342;2022-12-10T10:28:45;104.97;;;27.90;;
17347;SDS011;8791;50.876;4.342;2022-12-10T10:31:17;110.07;;;28.97;;
17347;SDS011;8791;50.876;4.342;2022-12-10T10:33:48;93.47;;;25.33;;
17347;SDS011;8791;50.876;4.342;2022-12-10T10:36:22;101.13;;;27.70;;
17347;SDS011;8791;50.876;4.342;2022-12-10T10:38:50;91.00;;;24.20;;
17347;SDS011;8791;50.876;4.342;2022-12-10T10:41:17;108.17;;;26.33;;
17347;SDS011;8791;50.876;4.342;2022-12-10T10:43:44;108.50;;;27.87;;
17347;SDS011;8791;50.876;4.342;2022-12-10T10:46:12;104.23;;;28.07;;
17347;SDS011;8791;50.876;4.342;2022-12-10T10:48:43;99.33;;;26.73;;
17347;SDS011;8791;50.876;4.342;2022-12-10T10:51:15;100.37;;;27.90;;
17347;SDS011;8791;50.876;4.342;2022-12-10T10:53:48;96.83;;;25.77;;
17347;SDS011;8791;50.876;4.342;2022-12-10T10:56:17;104.77;;;27.60;;
17347;SDS011;8791;50.876;4.342;2022-12-10T10:58:53;88.47;;;25.27;;
17347;SDS011;8791;50.876;4.342;2022-12-10T11:01:23;83.50;;;23.37;;
17347;SDS011;8791;50.876;4.342;2022-12-10T11:03:55;75.73;;;23.43;;
17347;SDS011;8791;50.876;4.342;2022-12-10T11:06:24;88.67;;;23.47;;
17347;SDS011;8791;50.876;4.342;2022-12-10T11:08:53;80.63;;;24.83;;
17347;SDS011;8791;50.876;4.342;2022-12-10T11:11:25;83.00;;;24.60;;
17347;SDS011;8791;50.876;4.342;2022-12-10T11:14:12;83.67;;;26.57;;
17347;SDS011;8791;50.876;4.342;2022-12-10T11:16:41;82.43;;;23.33;;
17347;SDS011;8791;50.876;4.342;2022-12-10T11:19:16;92.17;;;26.93;;
17347;SDS011;8791;50.876;4.342;2022-12-10T11:21:45;84.53;;;24.67;;
17347;SDS011;8791;50.876;4.342;2022-12-10T11:24:15;80.90;;;23.97;;
17347;SDS011;8791;50.876;4.342;2022-12-10T11:29:37;84.70;;;23.93;;
17347;SDS011;8791;50.876;4.342;2022-12-10T11:32:25;95.37;;;25.33;;
17347;SDS011;8791;50.876;4.342;2022-12-10T11:35:05;95.10;;;27.03;;
17347;SDS011;8791;50.876;4.342;2022-12-10T11:37:38;88.53;;;25.73;;
17347;SDS011;8791;50.876;4.342;2022-12-10T11:40:15;80.37;;;25.50;;
17347;SDS011;8791;50.876;4.342;2022-12-10T11:42:55;85.00;;;25.60;;
17347;SDS011;8791;50.876;4.342;2022-12-10T11:45:30;87.47;;;25.23;;
17347;SDS011;8791;50.876;4.342;2022-12-10T11:48:13;85.03;;;24.17;;
17347;SDS011;8791;50.876;4.342;2022-12-10T11:50:53;75.17;;;22.93;;
17347;SDS011;8791;50.876;4.342;2022-12-10T11:53:32;85.63;;;24.53;;
17347;SDS011;8791;50.876;4.342;2022-12-10T11:56:08;95.63;;;26.00;;
17347;SDS011;8791;50.876;4.342;2022-12-10T11:58:50;88.93;;;26.60;;
17347;SDS011;8791;50.876;4.342;2022-12-10T12:01:32;74.40;;;20.67;;
17347;SDS011;8791;50.876;4.342;2022-12-10T12:04:20;76.37;;;22.83;;
17347;SDS011;8791;50.876;4.342;2022-12-10T12:06:58;79.83;;;24.13;;
17347;SDS011;8791;50.876;4.342;2022-12-10T12:09:37;69.90;;;20.97;;
17347;SDS011;8791;50.876;4.342;2022-12-10T12:12:18;81.03;;;22.33;;
17347;SDS011;8791;50.876;4.342;2022-12-10T12:14:54;71.90;;;22.27;;
17347;SDS011;8791;50.876;4.342;2022-12-10T12:17:26;64.90;;;19.13;;
17347;SDS011;8791;50.876;4.342;2022-12-10T12:19:56;79.27;;;24.23;;
17347;SDS011;8791;50.876;4.342;2022-12-10T12:22:29;66.97;;;21.33;;
17347;SDS011;8791;50.876;4.342;2022-12-10T12:25:01;66.30;;;22.67;;
17347;SDS011;8791;50.876;4.342;2022-12-10T12:27:32;64.73;;;21.03;;
17347;SDS011;8791;50.876;4.342;2022-12-10T12:30:05;72.30;;;21.43;;
17347;SDS011;8791;50.876;4.342;2022-12-10T12:32:42;75.00;;;23.73;;
17347;SDS011;8791;50.876;4.342;2022-12-10T12:35:16;63.50;;;17.93;;
17347;SDS011;8791;50.876;4.342;2022-12-10T12:37:50;65.83;;;20.87;;
17347;SDS011;8791;50.876;4.342;2022-12-10T12:40:25;73.33;;;20.63;;
17347;SDS011;8791;50.876;4.342;2022-12-10T12:42:56;64.47;;;20.07;;
17347;SDS011;8791;50.876;4.342;2022-12-10T12:45:30;72.40;;;21.40;;
17347;SDS011;8791;50.876;4.342;2022-12-10T12:48:01;65.13;;;20.67;;
17347;SDS011;8791;50.876;4.342;2022-12-10T12:50:39;64.13;;;22.17;;
17347;SDS011;8791;50.876;4.342;2022-12-10T12:53:11;61.60;;;19.77;;
17347;SDS011;8791;50.876;4.342;2022-12-10T12:55:43;68.97;;;21.97;;
17347;SDS011;8791;50.876;4.342;2022-12-10T12:58:19;68.53;;;21.20;;
17347;SDS011;8791;50.876;4.342;2022-12-10T13:00:57;66.13;;;20.60;;
17347;SDS011;8791;50.876;4.342;2022-12-10T13:03:33;60.03;;;19.10;;
17347;SDS011;8791;50.876;4.342;2022-12-10T13:06:13;61.07;;;20.70;;
17347;SDS011;8791;50.876;4.342;2022-12-10T13:08:45;67.13;;;20.97;;
17347;SDS011;8791;50.876;4.342;2022-12-10T13:11:18;62.87;;;21.43;;
17347;SDS011;8791;50.876;4.342;2022-12-10T13:17:07;69.93;;;19.30;;
17347;SDS011;8791;50.876;4.342;2022-12-10T13:19:50;72.03;;;20.83;;
17347;SDS011;8791;50.876;4.342;2022-12-10T13:25:22;70.00;;;19.87;;
17347;SDS011;8791;50.876;4.342;2022-12-10T13:28:16;67.97;;;21.63;;
17347;SDS011;8791;50.876;4.342;2022-12-10T13:33:43;56.93;;;18.83;;
17347;SDS011;8791;50.876;4.342;2022-12-10T13:36:13;60.80;;;19.00;;
17347;SDS011;8791;50.876;4.342;2022-12-10T13:38:54;57.73;;;18.37;;
17347;SDS011;8791;50.876;4.342;2022-12-10T13:41:25;68.57;;;21.00;;
17347;SDS011;8791;50.876;4.342;2022-12-10T13:44:24;59.10;;;19.90;;
17347;SDS011;8791;50.876;4.342;2022-12-10T13:47:00;60.17;;;19.93;;
17347;SDS011;8791;50.876;4.342;2022-12-10T13:49:34;68.30;;;20.27;;
17347;SDS011;8791;50.876;4.342;2022-12-10T13:52:13;74.30;;;21.60;;
17347;SDS011;8791;50.876;4.342;2022-12-10T14:00:53;55.93;;;19.33;;
17347;SDS011;8791;50.876;4.342;2022-12-10T14:06:17;60.43;;;19.37;;
17347;SDS011;8791;50.876;4.342;2022-12-10T14:08:52;61.90;;;20.73;;
17347;SDS011;8791;50.876;4.342;2022-12-10T14:11:26;71.57;;;22.27;;
17347;SDS011;8791;50.876;4.342;2022-12-10T14:13:58;70.80;;;20.47;;
17347;SDS011;8791;50.876;4.342;2022-12-10T14:16:27;76.70;;;23.97;;
17347;SDS011;8791;50.876;4.342;2022-12-10T14:18:58;61.47;;;19.43;;
17347;SDS011;8791;50.876;4.342;2022-12-10T14:21:27;79.53;;;22.43;;
17347;SDS011;8791;50.876;4.342;2022-12-10T14:23:59;66.80;;;19.50;;
17347;SDS011;8791;50.876;4.342;2022-12-10T14:26:26;62.57;;;18.03;;
17347;SDS011;8791;50.876;4.342;2022-12-10T14:28:55;54.63;;;17.43;;
17347;SDS011;8791;50.876;4.342;2022-12-10T14:31:27;61.43;;;17.93;;
17347;SDS011;8791;50.876;4.342;2022-12-10T14:33:57;68.10;;;19.17;;
17347;SDS011;8791;50.876;4.342;2022-12-10T14:36:28;61.70;;;19.20;;
17347;SDS011;8791;50.876;4.342;2022-12-10T14:38:57;51.33;;;17.33;;
17347;SDS011;8791;50.876;4.342;2022-12-10T14:41:26;60.50;;;19.57;;
17347;SDS011;8791;50.876;4.342;2022-12-10T14:43:56;62.67;;;18.97;;
17347;SDS011;8791;50.876;4.342;2022-12-10T14:46:29;61.27;;;19.87;;
17347;SDS011;8791;50.876;4.342;2022-12-10T14:48:57;68.63;;;20.30;;
17347;SDS011;8791;50.876;4.342;2022-12-10T14:51:25;61.40;;;19.63;;
17347;SDS011;8791;50.876;4.342;2022-12-10T14:53:57;56.97;;;18.60;;
17347;SDS011;8791;50.876;4.342;2022-12-10T14:56:26;61.23;;;19.30;;
17347;SDS011;8791;50.876;4.342;2022-12-10T14:58:57;58.67;;;19.60;;
17347;SDS011;8791;50.876;4.342;2022-12-10T15:01:32;62.67;;;16.93;;
17347;SDS011;8791;50.876;4.342;2022-12-10T15:04:02;64.07;;;18.63;;
17347;SDS011;8791;50.876;4.342;2022-12-10T15:06:33;65.43;;;19.70;;
17347;SDS011;8791;50.876;4.342;2022-12-10T15:09:02;55.80;;;17.70;;